Time;durP1;ratioP1;P1;durP2;ratioP2;P2;SDS_P1;SDS_P2;PMS_P1;PMS_P2;Temp;Humidity;BMP_temperature;BMP_pressure;BME280_temperature;BME280_humidity;BME280_pressure;Samples;Min_cycle;Max_cycle;Signal;HPM_P1;HPM_P2
2023/06/23 00:00:45;;;;;;;9.85;7.35;;;;;;;19.20;100.00;100257.44;6191829;28;20630;-96
2023/06/23 00:03:47;;;;;;;13.73;7.65;;;;;;;19.21;100.00;100261.69;6203678;28;20505;-96
2023/06/23 00:06:50;;;;;;;10.95;7.22;;;;;;;19.14;100.00;100256.38;6183187;28;20793;-96
2023/06/23 00:09:52;;;;;;;8.10;6.80;;;;;;;19.12;100.00;100260.97;6195932;28;20579;-96
2023/06/23 00:12:54;;;;;;;10.82;6.78;;;;;;;19.06;100.00;100272.22;6211139;28;20333;-96
2023/06/23 00:15:57;;;;;;;9.15;6.65;;;;;;;19.03;100.00;100280.47;6186097;28;20453;-96
2023/06/23 00:18:59;;;;;;;10.02;6.78;;;;;;;19.05;100.00;100288.13;6197803;28;20039;-96
2023/06/23 00:22:02;;;;;;;12.88;7.20;;;;;;;19.14;100.00;100290.47;6186398;28;20078;-96
2023/06/23 00:25:04;;;;;;;11.60;7.15;;;;;;;19.23;100.00;100303.47;6178124;28;20068;-96
2023/06/23 00:28:06;;;;;;;9.73;6.63;;;;;;;19.28;100.00;100303.78;6193023;28;20050;-96
2023/06/23 00:31:08;;;;;;;10.35;6.72;;;;;;;19.33;100.00;100304.03;6196810;28;20042;-96
2023/06/23 00:34:10;;;;;;;9.95;6.97;;;;;;;19.33;100.00;100309.28;6189134;28;20747;-96
2023/06/23 00:37:13;;;;;;;10.40;7.55;;;;;;;19.41;100.00;100306.53;6189103;28;20046;-96
2023/06/23 00:40:17;;;;;;;10.90;7.30;;;;;;;19.41;100.00;100311.78;6189974;28;20045;-96
2023/06/23 00:43:21;;;;;;;12.40;7.35;;;;;;;19.37;100.00;100297.41;6177763;28;20613;-96
2023/06/23 00:46:24;;;;;;;10.25;6.80;;;;;;;19.35;100.00;100296.78;6173240;28;20096;-96
2023/06/23 00:49:29;;;;;;;8.18;6.60;;;;;;;19.37;100.00;100297.41;6199378;28;20051;-96
2023/06/23 00:52:31;;;;;;;9.50;6.90;;;;;;;19.37;100.00;100295.59;6189561;28;20047;-96
2023/06/23 00:55:37;;;;;;;10.38;6.50;;;;;;;19.33;100.00;100298.78;6190742;28;20627;-95
2023/06/23 00:58:41;;;;;;;11.93;6.65;;;;;;;19.35;100.00;100308.09;6190417;28;20042;-95
2023/06/23 01:01:43;;;;;;;9.63;6.85;;;;;;;19.37;100.00;100302.66;6188528;28;20046;-95
2023/06/23 01:04:47;;;;;;;9.80;6.13;;;;;;;19.42;100.00;100295.03;6191676;28;20646;-96
2023/06/23 01:08:13;;;;;;;10.32;5.72;;;;;;;19.41;100.00;100306.53;6191381;28;20038;-95
2023/06/23 01:11:42;;;;;;;8.95;6.30;;;;;;;19.44;100.00;100300.13;6190821;28;20514;-95
2023/06/23 01:15:04;;;;;;;9.15;5.93;;;;;;;19.45;100.00;100307.81;6194133;28;20045;-95
2023/06/23 01:18:22;;;;;;;9.07;6.35;;;;;;;19.49;100.00;100314.31;6210915;28;20070;-95
2023/06/23 01:22:16;;;;;;;9.93;6.38;;;;;;;19.48;100.00;100325.81;6180409;28;20579;-95
2023/06/23 01:25:33;;;;;;;8.73;5.88;;;;;;;19.47;100.00;100326.00;6121956;29;20063;-95
2023/06/23 01:28:58;;;;;;;10.77;6.75;;;;;;;19.46;100.00;100324.38;6106106;29;20544;-94
2023/06/23 01:32:03;;;;;;;9.02;6.97;;;;;;;19.46;100.00;100325.19;6089670;29;20048;-94
2023/06/23 01:35:11;;;;;;;10.27;7.57;;;;;;;19.48;100.00;100327.63;6120971;29;20114;-94
2023/06/23 01:38:24;;;;;;;12.93;8.02;;;;;;;19.46;100.00;100324.38;6113495;29;20056;-93
2023/06/23 01:41:33;;;;;;;9.70;7.35;;;;;;;19.49;100.00;100324.81;6114174;29;20901;-93
2023/06/23 01:44:38;;;;;;;;;;;;;;;19.49;100.00;100322.19;6092028;29;20620;-93
2023/06/23 01:47:43;;;;;;;10.32;7.82;;;;;;;19.48;100.00;100323.19;6108237;29;20377;-94
2023/06/23 01:50:47;;;;;;;11.43;7.68;;;;;;;19.53;100.00;100330.53;6112175;29;20520;-92
2023/06/23 01:53:53;;;;;;;11.43;7.70;;;;;;;19.53;100.00;100330.53;6098952;29;20055;-94
2023/06/23 01:56:56;;;;;;;12.10;7.05;;;;;;;19.58;100.00;100328.97;6104860;29;20166;-92
2023/06/23 02:00:00;;;;;;;11.95;7.90;;;;;;;19.46;100.00;100330.44;6100488;28;20050;-92
2023/06/23 02:03:14;;;;;;;11.50;7.45;;;;;;;19.58;100.00;100330.78;6186807;28;20129;-92
2023/06/23 02:06:20;;;;;;;11.35;8.05;;;;;;;19.45;100.00;100320.94;6179023;28;20046;-91
2023/06/23 02:09:32;;;;;;;13.15;7.57;;;;;;;19.44;100.00;100316.66;6185550;28;20046;-94
2023/06/23 02:12:38;;;;;;;14.00;7.78;;;;;;;19.31;100.00;100311.28;6206142;28;20488;-94
2023/06/23 02:15:42;;;;;;;12.82;8.00;;;;;;;19.21;100.00;100311.56;6197115;28;20057;-96
2023/06/23 02:18:53;;;;;;;17.35;7.93;;;;;;;19.21;100.00;100322.06;6173523;28;20600;-95
2023/06/23 02:21:57;;;;;;;20.80;8.82;;;;;;;19.19;100.00;100329.28;6186618;28;20042;-92
2023/06/23 02:25:00;;;;;;;18.48;8.98;;;;;;;19.16;100.00;100324.41;6197108;28;20042;-92
2023/06/23 02:28:03;;;;;;;20.88;8.90;;;;;;;19.10;100.00;100318.06;6205047;28;20507;-92
2023/06/23 02:31:08;;;;;;;20.00;8.90;;;;;;;19.12;100.00;100328.38;6199475;28;20046;-94
2023/06/23 02:34:11;;;;;;;14.48;8.68;;;;;;;19.17;100.00;100333.09;6185530;28;20187;-93
2023/06/23 02:37:16;;;;;;;25.92;10.23;;;;;;;19.14;100.00;100335.09;6195214;28;20042;-92
2023/06/23 02:40:21;;;;;;;18.48;10.23;;;;;;;19.10;100.00;100325.13;6198391;28;20114;-91
2023/06/23 02:43:27;;;;;;;23.20;10.50;;;;;;;19.07;100.00;100346.47;6194182;28;20038;-91
2023/06/23 02:46:35;;;;;;;14.32;10.65;;;;;;;18.87;100.00;100338.34;6186560;28;20049;-91
2023/06/23 02:49:38;;;;;;;16.30;11.18;;;;;;;19.02;100.00;100344.41;6194728;28;20504;-91
2023/06/23 02:52:45;;;;;;;19.83;11.10;;;;;;;19.01;100.00;100340.16;6187678;28;20057;-91
2023/06/23 02:55:50;;;;;;;21.85;11.63;;;;;;;18.97;100.00;100341.50;6190916;28;20806;-91
2023/06/23 02:58:57;;;;;;;25.73;12.98;;;;;;;18.96;100.00;100336.47;6185029;28;20043;-93
2023/06/23 03:02:07;;;;;;;58.72;15.32;;;;;;;18.90;100.00;100336.16;6191655;28;20041;-94
2023/06/23 03:05:12;;;;;;;35.72;13.18;;;;;;;18.84;100.00;100333.47;6188417;28;20266;-95
2023/06/23 03:08:15;;;;;;;20.02;13.20;;;;;;;18.70;100.00;100327.16;6188766;28;20105;-93
2023/06/23 03:11:19;;;;;;;38.20;15.52;;;;;;;18.72;100.00;100333.03;6181693;28;20129;-93
2023/06/23 03:14:21;;;;;;;26.02;13.88;;;;;;;18.73;100.00;100340.75;6191581;28;20045;-93
2023/06/23 03:17:27;;;;;;;74.70;20.50;;;;;;;18.75;100.00;100348.41;6192809;28;20058;-93
2023/06/23 03:20:46;;;;;;;53.40;17.23;;;;;;;18.75;100.00;100347.59;6175769;28;20370;-93
2023/06/23 03:23:50;;;;;;;23.85;15.13;;;;;;;18.86;100.00;100355.09;6189117;28;20042;-92
2023/06/23 03:26:57;;;;;;;19.70;15.25;;;;;;;18.81;100.00;100349.56;6196747;28;20192;-92
2023/06/23 03:30:05;;;;;;;64.75;18.67;;;;;;;18.90;100.00;100357.13;6196656;28;20578;-93
2023/06/23 03:33:22;;;;;;;36.50;16.65;;;;;;;18.96;100.00;100358.25;6178869;28;20463;-90
2023/06/23 03:36:26;;;;;;;60.95;18.23;;;;;;;19.06;100.00;100369.28;6193531;28;20057;-89
2023/06/23 03:39:31;;;;;;;154.70;24.48;;;;;;;18.99;100.00;100372.81;6194565;28;20088;-96
2023/06/23 03:42:41;;;;;;;140.50;23.88;;;;;;;18.86;100.00;100365.56;6188823;28;20132;-95
2023/06/23 03:45:46;;;;;;;92.45;19.98;;;;;;;18.83;100.00;100376.41;6180673;28;20046;-95
2023/06/23 03:48:54;;;;;;;124.53;22.70;;;;;;;18.70;100.00;100380.41;6179367;28;20045;-94
2023/06/23 03:51:59;;;;;;;50.33;18.13;;;;;;;18.66;100.00;100391.47;6181748;28;20065;-93
2023/06/23 03:55:06;;;;;;;55.65;17.73;;;;;;;18.66;100.00;100387.03;6186010;28;20050;-94
2023/06/23 03:58:10;;;;;;;28.05;15.35;;;;;;;18.68;100.00;100389.44;6187870;28;20487;-95
2023/06/23 04:01:14;;;;;;;41.30;16.35;;;;;;;18.51;100.00;100389.59;6187807;28;20050;-93
2023/06/23 04:04:18;;;;;;;73.10;18.63;;;;;;;18.54;100.00;100398.13;6188040;28;20517;-93
2023/06/23 04:07:29;;;;;;;64.47;16.92;;;;;;;18.47;100.00;100406.66;6209771;28;20426;-96
2023/06/23 04:10:34;;;;;;;41.80;16.02;;;;;;;18.56;100.00;100415.28;6196208;28;20157;-94
2023/06/23 04:13:39;;;;;;;49.35;16.33;;;;;;;18.48;100.00;100415.34;6186801;28;20049;-95
2023/06/23 04:16:45;;;;;;;26.40;16.50;;;;;;;18.36;100.00;100412.34;6187326;28;20050;-96
2023/06/23 04:19:53;;;;;;;27.10;16.92;;;;;;;18.38;100.00;100418.19;6181876;28;20069;-88
2023/06/23 04:22:57;;;;;;;23.35;16.75;;;;;;;18.45;100.00;100432.22;6188839;28;20039;-88
2023/06/23 04:26:01;;;;;;;21.10;15.85;;;;;;;18.39;100.00;100429.50;6182743;28;20034;-88
2023/06/23 04:29:06;;;;;;;22.48;15.23;;;;;;;18.44;100.00;100435.84;6187720;28;20552;-88
2023/06/23 04:32:11;;;;;;;34.83;13.55;;;;;;;18.42;100.00;100439.63;6186468;28;20560;-89
2023/06/23 04:35:14;;;;;;;15.00;7.63;;;;;;;18.37;100.00;100440.16;6184271;28;20557;-91
2023/06/23 04:38:20;;;;;;;6.45;5.50;;;;;;;18.30;100.00;100445.28;6186609;28;20365;-89
2023/06/23 04:41:26;;;;;;;13.82;5.63;;;;;;;18.28;100.00;100447.28;6188999;28;20053;-90
2023/06/23 04:44:32;;;;;;;6.13;3.50;;;;;;;18.18;100.00;100451.88;6189779;28;20046;-90
2023/06/23 04:47:39;;;;;;;7.63;3.30;;;;;;;18.14;100.00;100462.91;6188142;28;20057;-91
2023/06/23 04:50:43;;;;;;;7.07;2.67;;;;;;;18.05;100.00;100457.69;6198031;28;20409;-90
2023/06/23 04:53:59;;;;;;;9.48;2.75;;;;;;;18.07;100.00;100460.97;6186964;28;20038;-91
2023/06/23 04:57:04;;;;;;;9.27;3.00;;;;;;;17.93;100.00;100463.50;6198295;28;20050;-95
2023/06/23 05:00:09;;;;;;;28.58;2.90;;;;;;;17.81;100.00;100466.50;6188393;28;20034;-90
2023/06/23 05:03:12;;;;;;;5.45;1.90;;;;;;;17.66;100.00;100468.13;6190525;28;20643;-89
2023/06/23 05:06:26;;;;;;;11.52;2.00;;;;;;;17.64;100.00;100485.84;6205989;28;20047;-94
2023/06/23 05:09:45;;;;;;;5.38;2.30;;;;;;;17.51;100.00;100483.72;6186850;28;20050;-94
2023/06/23 05:12:55;;;;;;;5.80;2.10;;;;;;;17.52;100.00;100492.41;6179561;28;20046;-92
2023/06/23 05:16:00;;;;;;;2.90;2.35;;;;;;;17.50;100.00;100512.69;6188563;28;20046;-93
2023/06/23 05:19:08;;;;;;;4.20;2.45;;;;;;;17.44;100.00;100524.66;6194619;28;20041;-90
2023/06/23 05:22:15;;;;;;;3.97;2.38;;;;;;;17.39;100.00;100524.31;6192579;28;20046;-94
2023/06/23 05:25:32;;;;;;;5.80;2.78;;;;;;;17.30;100.00;100536.59;6186077;28;20057;-91
2023/06/23 05:28:38;;;;;;;4.05;2.30;;;;;;;17.30;100.00;100547.06;6201775;28;20057;-91
2023/06/23 05:31:42;;;;;;;9.05;3.00;;;;;;;17.26;100.00;100545.75;6203103;28;20330;-91
2023/06/23 05:34:49;;;;;;;5.68;2.50;;;;;;;17.24;100.00;100555.56;6191495;28;20034;-91
2023/06/23 05:37:52;;;;;;;5.45;2.40;;;;;;;17.29;100.00;100571.59;6191135;28;20086;-91
2023/06/23 05:40:55;;;;;;;2.38;2.00;;;;;;;17.28;100.00;100569.94;6190165;28;20042;-90
2023/06/23 05:43:57;;;;;;;6.57;2.20;;;;;;;17.21;100.00;100574.19;6198109;28;20120;-89
2023/06/23 05:47:04;;;;;;;5.70;2.85;;;;;;;17.19;100.00;100579.59;6191175;28;20124;-90
2023/06/23 05:50:18;;;;;;;6.78;2.92;;;;;;;17.16;100.00;100598.22;6194357;28;20042;-90
2023/06/23 05:53:30;;;;;;;12.73;3.10;;;;;;;17.10;100.00;100600.69;6185768;28;20328;-91
2023/06/23 05:56:57;;;;;;;5.20;3.22;;;;;;;17.11;100.00;100610.16;6197248;28;20092;-92
2023/06/23 06:00:10;;;;;;;4.43;2.90;;;;;;;17.06;100.00;100623.72;6195403;28;20050;-90
2023/06/23 06:03:21;;;;;;;6.07;2.88;;;;;;;17.10;100.00;100642.53;6191077;28;20510;-91
2023/06/23 06:06:34;;;;;;;3.00;2.70;;;;;;;16.98;100.00;100657.72;6202330;28;20054;-91
2023/06/23 06:09:41;;;;;;;3.13;2.65;;;;;;;16.96;100.00;100657.03;6198387;28;20044;-91
2023/06/23 06:12:45;;;;;;;19.80;4.78;;;;;;;17.02;100.00;100674.72;6200946;28;20038;-91
2023/06/23 06:15:52;;;;;;;7.47;3.10;;;;;;;16.97;100.00;100687.47;6195021;28;20038;-92
2023/06/23 06:18:55;;;;;;;3.63;2.92;;;;;;;16.94;100.00;100686.00;6195070;28;20109;-90
2023/06/23 06:21:59;;;;;;;3.40;3.10;;;;;;;16.81;100.00;100695.25;6198175;28;20516;-91
2023/06/23 06:25:08;;;;;;;7.75;4.30;;;;;;;16.77;100.00;100715.63;6196219;28;20216;-92
2023/06/23 06:28:13;;;;;;;;;;;;;;;16.69;100.00;100703.31;6194700;28;20054;-93
2023/06/23 06:31:22;;;;;;;19.15;5.00;;;;;;;16.67;100.00;100722.75;6203343;28;20016;-92
2023/06/23 06:34:27;;;;;;;7.72;4.53;;;;;;;16.54;100.00;100734.44;6193006;28;20081;-91
2023/06/23 06:37:31;;;;;;;9.45;5.55;;;;;;;16.49;100.00;100735.88;6189340;28;20577;-91
2023/06/23 06:40:36;;;;;;;10.73;5.22;;;;;;;16.47;100.00;100771.78;6188860;28;20038;-90
2023/06/23 06:43:40;;;;;;;7.47;5.25;;;;;;;16.43;100.00;100779.13;6192440;28;20705;-91
2023/06/23 06:46:45;;;;;;;6.78;5.32;;;;;;;16.43;100.00;100796.63;6195070;28;20133;-91
2023/06/23 06:49:49;;;;;;;8.65;4.97;;;;;;;16.41;100.00;100796.75;6201284;28;20514;-91
2023/06/23 06:52:53;;;;;;;7.57;4.78;;;;;;;16.38;100.00;100814.53;6199362;28;20038;-92
2023/06/23 06:55:58;;;;;;;6.78;4.45;;;;;;;16.33;100.00;100821.03;6196258;28;20038;-90
2023/06/23 06:59:00;;;;;;;6.32;4.97;;;;;;;16.28;100.00;100830.31;6205319;28;20061;-90
2023/06/23 07:02:08;;;;;;;7.40;5.32;;;;;;;16.29;100.00;100843.19;6193437;28;20366;-90
2023/06/23 07:05:10;;;;;;;6.90;4.88;;;;;;;16.32;100.00;100855.13;6204055;28;20160;-90
2023/06/23 07:08:14;;;;;;;6.43;5.05;;;;;;;16.28;100.00;100866.88;6192880;28;20043;-90
2023/06/23 07:11:22;;;;;;;6.97;5.57;;;;;;;16.25;100.00;100870.59;6196789;28;20046;-89
2023/06/23 07:14:26;;;;;;;6.05;5.00;;;;;;;16.34;100.00;100880.13;6196068;28;20423;-90
2023/06/23 07:17:28;;;;;;;6.53;5.15;;;;;;;16.33;100.00;100885.53;6206442;28;20541;-91
2023/06/23 07:20:32;;;;;;;6.60;4.95;;;;;;;16.36;100.00;100904.31;6211681;28;20069;-91
2023/06/23 07:23:35;;;;;;;8.13;5.10;;;;;;;16.32;100.00;100896.94;6202538;28;20042;-91
2023/06/23 07:26:41;;;;;;;7.18;5.43;;;;;;;16.36;100.00;100916.56;6201143;28;20116;-89
2023/06/23 07:29:43;;;;;;;7.40;5.65;;;;;;;16.40;100.00;100923.16;6196889;28;20042;-92
2023/06/23 07:32:47;;;;;;;7.57;5.25;;;;;;;16.45;100.00;100917.47;6195238;28;20097;-91
2023/06/23 07:35:48;;;;;;;8.80;5.75;;;;;;;16.53;100.00;100934.03;6197209;28;20110;-90
2023/06/23 07:38:52;;;;;;;7.00;6.05;;;;;;;16.58;100.00;100923.16;6198827;28;20548;-90
2023/06/23 07:41:53;;;;;;;7.70;5.82;;;;;;;16.54;100.00;100922.59;6185336;28;20571;-89
2023/06/23 07:44:56;;;;;;;8.00;6.13;;;;;;;16.74;100.00;100928.53;6202360;28;20558;-89
2023/06/23 07:47:58;;;;;;;6.82;6.13;;;;;;;16.61;100.00;100920.22;6188061;28;20034;-89
2023/06/23 07:51:00;;;;;;;8.77;6.75;;;;;;;16.66;100.00;100931.03;6199292;28;20049;-89
2023/06/23 07:54:02;;;;;;;7.03;6.28;;;;;;;16.75;100.00;100935.38;6197490;28;20041;-89
2023/06/23 07:57:08;;;;;;;9.60;7.25;;;;;;;16.77;100.00;100945.69;6200866;28;20128;-88
2023/06/23 08:00:11;;;;;;;11.10;7.10;;;;;;;16.76;100.00;100951.88;6201029;28;20054;-90
2023/06/23 08:03:14;;;;;;;8.02;6.93;;;;;;;16.68;100.00;100950.03;6194347;28;20411;-88
2023/06/23 08:06:23;;;;;;;10.43;7.90;;;;;;;16.66;100.00;100969.44;6189963;28;20042;-89
2023/06/23 08:09:26;;;;;;;8.82;6.88;;;;;;;16.64;100.00;100966.97;6181729;28;20147;-89
2023/06/23 08:12:28;;;;;;;8.85;6.82;;;;;;;16.56;100.00;100977.34;6195879;28;20034;-88
2023/06/23 08:15:29;;;;;;;7.55;6.40;;;;;;;16.61;100.00;100988.19;6185560;28;20070;-89
2023/06/23 08:18:31;;;;;;;9.50;7.28;;;;;;;16.78;100.00;100989.19;6186481;28;20046;-90
2023/06/23 08:21:35;;;;;;;8.98;6.47;;;;;;;16.60;100.00;100986.56;6191695;28;20047;-90
2023/06/23 08:24:37;;;;;;;8.80;7.03;;;;;;;16.66;100.00;101009.47;6187916;28;20038;-90
2023/06/23 08:27:39;;;;;;;7.78;5.78;;;;;;;16.82;100.00;101023.69;6203837;28;20401;-90
2023/06/23 08:30:41;;;;;;;9.77;6.47;;;;;;;16.74;100.00;101021.78;6182243;28;20499;-89
2023/06/23 08:33:44;;;;;;;8.40;6.30;;;;;;;16.76;100.00;101040.75;6183839;28;20061;-91
2023/06/23 08:36:45;;;;;;;9.30;6.95;;;;;;;16.82;100.00;101032.38;6182511;28;20050;-91
2023/06/23 08:39:47;;;;;;;9.68;6.68;;;;;;;16.83;100.00;101027.97;6176464;28;20121;-89
2023/06/23 08:42:50;;;;;;;9.77;6.70;;;;;;;16.84;100.00;101043.47;6188761;28;20173;-91
2023/06/23 08:46:02;;;;;;;12.10;7.25;;;;;;;16.94;100.00;101046.03;6200476;28;20221;-91
2023/06/23 08:49:08;;;;;;;9.80;7.03;;;;;;;16.86;100.00;101046.78;6186388;28;20031;-90
2023/06/23 08:52:11;;;;;;;8.55;6.10;;;;;;;16.91;100.00;101046.31;6172215;28;20092;-91
2023/06/23 08:55:13;;;;;;;9.15;6.75;;;;;;;16.91;100.00;101051.56;6194817;28;20052;-90
2023/06/23 08:58:17;;;;;;;11.32;6.65;;;;;;;16.92;100.00;101045.38;6188522;28;20058;-90
2023/06/23 09:01:19;;;;;;;9.23;6.28;;;;;;;17.00;100.00;101061.13;6193406;28;20059;-89
2023/06/23 09:04:21;;;;;;;8.75;6.40;;;;;;;16.87;100.00;101058.91;6192438;28;20511;-93
2023/06/23 09:07:24;;;;;;;10.68;6.13;;;;;;;16.87;100.00;101060.66;6191697;28;20042;-92
2023/06/23 09:10:26;;;;;;;10.85;6.97;;;;;;;16.85;100.00;101076.53;6192946;28;20126;-92
2023/06/23 09:13:44;;;;;;;7.40;5.63;;;;;;;16.79;100.00;101079.72;6190339;28;20045;-92
2023/06/23 09:16:49;;;;;;;10.43;6.28;;;;;;;16.82;100.00;101086.44;6182729;28;20043;-92
2023/06/23 09:19:54;;;;;;;9.43;5.85;;;;;;;16.76;100.00;101100.91;6191626;28;20296;-92
2023/06/23 09:22:59;;;;;;;7.72;6.03;;;;;;;16.73;100.00;101093.34;6191367;28;20310;-91
2023/06/23 09:26:03;;;;;;;7.47;5.75;;;;;;;16.74;100.00;101100.22;6193573;28;20049;-89
2023/06/23 09:29:32;;;;;;;10.57;4.72;;;;;;;16.81;100.00;101109.16;6179711;28;20057;-89
2023/06/23 09:32:34;;;;;;;8.93;5.80;;;;;;;16.70;100.00;101114.56;6190465;28;21039;-92
2023/06/23 09:35:36;;;;;;;8.60;5.53;;;;;;;16.70;100.00;101119.81;6192793;28;20038;-90
2023/06/23 09:38:39;;;;;;;9.18;5.75;;;;;;;16.74;100.00;101124.59;6184164;28;20497;-89
2023/06/23 09:41:46;;;;;;;6.90;5.28;;;;;;;16.64;100.00;101126.41;6190015;28;20596;-89
2023/06/23 09:44:54;;;;;;;7.50;4.57;;;;;;;16.70;100.00;101138.09;6187546;28;20423;-90
2023/06/23 09:47:56;;;;;;;6.25;4.35;;;;;;;16.51;100.00;101134.59;6204828;28;20289;-90
2023/06/23 09:51:02;;;;;;;5.55;4.32;;;;;;;16.62;100.00;101144.06;6208901;28;20496;-89
2023/06/23 09:54:04;;;;;;;7.35;5.30;;;;;;;16.67;100.00;101157.50;6191589;28;20039;-92
2023/06/23 09:57:15;;;;;;;5.82;5.03;;;;;;;16.61;100.00;101157.25;6193709;28;20080;-88
2023/06/23 10:00:18;;;;;;;8.30;5.80;;;;;;;16.69;100.00;101158.16;6203288;28;20407;-91
2023/06/23 10:03:20;;;;;;;10.80;5.95;;;;;;;16.91;100.00;101164.00;6183886;28;20050;-90
2023/06/23 10:06:37;;;;;;;15.85;6.20;;;;;;;16.89;100.00;101160.72;6196250;28;20052;-92
2023/06/23 10:09:48;;;;;;;9.57;5.80;;;;;;;16.82;100.00;101162.25;6190813;28;20519;-91
2023/06/23 10:12:50;;;;;;;8.55;6.43;;;;;;;16.87;100.00;101167.88;6180376;28;20049;-91
2023/06/23 10:15:52;;;;;;;11.73;7.57;;;;;;;16.84;100.00;101173.41;6187287;28;20052;-91
2023/06/23 10:18:54;;;;;;;11.02;6.75;;;;;;;16.91;100.00;101180.50;6193155;28;20053;-90
2023/06/23 10:21:56;;;;;;;14.65;7.13;;;;;;;16.99;100.00;101175.41;6189994;28;20121;-89
2023/06/23 10:25:00;;;;;;;14.20;8.68;;;;;;;16.98;100.00;101183.38;6187315;28;20437;-92
2023/06/23 10:28:07;;;;;;;11.15;7.85;;;;;;;16.99;100.00;101185.84;6182842;28;20708;-90
2023/06/23 10:31:09;;;;;;;14.25;7.75;;;;;;;17.04;100.00;101189.81;6188363;28;20048;-89
2023/06/23 10:34:13;;;;;;;11.63;7.72;;;;;;;17.09;100.00;101193.66;6189960;28;20042;-90
2023/06/23 10:37:21;;;;;;;12.98;8.90;;;;;;;17.20;100.00;101195.22;6189763;28;20523;-90
2023/06/23 10:40:49;;;;;;;13.25;8.63;;;;;;;17.41;100.00;101197.53;6190540;28;20100;-89
2023/06/23 10:43:54;;;;;;;13.00;8.45;;;;;;;17.30;100.00;101206.44;6186937;28;20030;-90
2023/06/23 10:46:57;;;;;;;13.48;9.25;;;;;;;17.34;100.00;101209.56;6191106;28;20480;-90
2023/06/23 10:49:59;;;;;;;15.07;8.90;;;;;;;17.35;100.00;101209.44;6191564;28;20049;-91
2023/06/23 10:53:18;;;;;;;12.45;8.93;;;;;;;17.40;100.00;101214.22;6196347;28;20065;-89
2023/06/23 10:56:37;;;;;;;11.70;9.02;;;;;;;17.46;100.00;101210.19;6188721;28;20512;-88
2023/06/23 10:59:43;;;;;;;14.07;10.85;;;;;;;17.59;100.00;101208.03;6188958;28;20428;-90
2023/06/23 11:02:52;;;;;;;13.48;9.73;;;;;;;17.67;100.00;101217.75;6172623;28;20462;-89
2023/06/23 11:05:56;;;;;;;15.15;10.85;;;;;;;17.71;100.00;101224.31;6181707;28;20532;-87
2023/06/23 11:08:57;;;;;;;17.20;10.73;;;;;;;17.88;100.00;101233.16;6176180;28;20049;-88
2023/06/23 11:11:59;;;;;;;14.90;10.75;;;;;;;17.91;100.00;101233.66;6188210;28;20206;-89
2023/06/23 11:15:16;;;;;;;16.80;12.35;;;;;;;18.00;100.00;101237.19;6187455;28;20133;-89
2023/06/23 11:18:23;;;;;;;16.70;12.77;;;;;;;18.15;100.00;101238.28;6187548;28;20501;-89
2023/06/23 11:21:38;;;;;;;17.08;12.98;;;;;;;18.23;100.00;101250.63;6191462;28;20418;-88
2023/06/23 11:24:52;;;;;;;20.00;14.50;;;;;;;18.30;100.00;101244.59;6192122;28;20412;-88
2023/06/23 11:28:38;;;;;;;23.65;14.88;;;;;;;18.13;100.00;101247.28;6198686;28;20055;-89
2023/06/23 11:32:14;;;;;;;22.00;14.90;;;;;;;18.38;100.00;101259.56;6191862;28;20034;-89
2023/06/23 11:35:16;;;;;;;18.15;13.27;;;;;;;18.41;100.00;101255.81;6198804;28;20089;-88
2023/06/23 11:38:19;;;;;;;18.20;13.07;;;;;;;18.43;100.00;101265.19;6191666;28;20042;-89
2023/06/23 11:41:28;;;;;;;15.77;13.00;;;;;;;18.47;100.00;101271.75;6192204;28;20042;-89
2023/06/23 11:44:36;;;;;;;19.60;12.90;;;;;;;18.44;100.00;101271.25;6190591;28;20061;-89
2023/06/23 11:47:40;;;;;;;20.73;13.95;;;;;;;18.24;100.00;101271.44;6196416;28;20050;-88
2023/06/23 11:50:42;;;;;;;20.27;12.43;;;;;;;18.33;100.00;101276.72;6180973;28;20047;-89
2023/06/23 11:53:46;;;;;;;20.73;12.75;;;;;;;18.51;100.00;101280.16;6184132;28;20045;-89
2023/06/23 11:56:51;;;;;;;16.90;12.65;;;;;;;18.60;100.00;101281.81;6186270;28;20046;-89
2023/06/23 11:59:53;;;;;;;17.33;12.95;;;;;;;18.57;100.00;101287.38;6191539;28;20046;-89
2023/06/23 12:02:55;;;;;;;18.88;12.27;;;;;;;18.55;100.00;101284.09;6181920;28;20496;-88
2023/06/23 12:06:02;;;;;;;19.08;13.63;;;;;;;18.55;100.00;101280.66;6183214;28;20041;-88
2023/06/23 12:09:06;;;;;;;17.63;12.32;;;;;;;18.61;100.00;101285.28;6191435;28;20038;-89
2023/06/23 12:12:08;;;;;;;20.77;13.73;;;;;;;18.60;100.00;101289.69;6188594;28;20400;-89
2023/06/23 12:15:17;;;;;;;18.65;14.02;;;;;;;18.72;100.00;101301.56;6192755;28;20141;-89
2023/06/23 12:18:19;;;;;;;16.95;13.45;;;;;;;18.89;100.00;101293.81;6187174;28;20457;-89
2023/06/23 12:21:22;;;;;;;17.92;13.35;;;;;;;19.01;100.00;101294.38;6189759;28;20041;-89
2023/06/23 12:24:28;;;;;;;17.50;13.38;;;;;;;18.94;100.00;101296.78;6197616;28;20048;-89
2023/06/23 12:27:30;;;;;;;25.35;14.32;;;;;;;18.98;100.00;101295.50;6189314;28;20038;-89
2023/06/23 12:30:44;;;;;;;19.58;13.35;;;;;;;18.78;100.00;101301.94;6187775;28;20046;-90
2023/06/23 12:33:49;;;;;;;14.73;12.32;;;;;;;18.65;100.00;101311.03;6197385;28;20177;-89
2023/06/23 12:37:01;;;;;;;19.95;12.68;;;;;;;18.70;100.00;101310.56;6197428;28;20463;-90
2023/06/23 12:40:05;;;;;;;18.58;12.30;;;;;;;18.66;100.00;101301.38;6183522;28;20125;-89
2023/06/23 12:43:09;;;;;;;17.77;13.20;;;;;;;18.57;100.00;101305.72;6189572;28;20444;-89
2023/06/23 12:46:15;;;;;;;17.98;12.40;;;;;;;18.64;100.00;101312.00;6189683;28;20191;-90
2023/06/23 12:49:19;;;;;;;17.63;12.30;;;;;;;18.72;100.00;101312.06;6181313;28;20046;-89
2023/06/23 12:52:21;;;;;;;19.77;12.27;;;;;;;18.83;100.00;101323.28;6183683;28;20100;-89
2023/06/23 12:55:22;;;;;;;15.23;12.40;;;;;;;18.96;100.00;101312.38;6164850;28;20066;-90
2023/06/23 12:58:24;;;;;;;18.02;12.10;;;;;;;19.00;100.00;101311.88;6184213;28;20050;-89
2023/06/23 13:01:26;;;;;;;18.38;11.65;;;;;;;19.34;100.00;101313.69;6176723;28;20066;-89
2023/06/23 13:04:28;;;;;;;19.25;12.38;;;;;;;19.47;100.00;101300.91;6182367;28;20038;-89
2023/06/23 13:07:30;;;;;;;21.60;13.43;;;;;;;19.68;100.00;101308.38;6180989;28;20496;-89
2023/06/23 13:10:34;;;;;;;17.42;12.00;;;;;;;19.89;100.00;101310.53;6180854;28;20042;-89
2023/06/23 13:13:36;;;;;;;18.00;11.70;;;;;;;20.22;100.00;101326.31;6184667;28;20046;-89
2023/06/23 13:16:38;;;;;;;16.15;11.55;;;;;;;20.27;100.00;101317.94;6182766;28;20052;-90
2023/06/23 13:19:40;;;;;;;14.38;11.18;;;;;;;20.14;100.00;101297.41;6189891;28;20080;-90
2023/06/23 13:22:42;;;;;;;14.43;10.35;;;;;;;20.59;100.00;101301.31;6178802;28;20039;-91
2023/06/23 13:25:45;;;;;;;10.85;8.50;;;;;;;21.12;100.00;101304.25;6190479;28;20046;-92
2023/06/23 13:28:47;;;;;;;11.95;9.00;;;;;;;21.41;100.00;101293.13;6184912;28;20457;-92
2023/06/23 13:31:50;;;;;;;10.90;8.40;;;;;;;21.73;100.00;101289.47;6171727;28;20038;-92
2023/06/23 13:34:54;;;;;;;11.77;8.30;;;;;;;21.96;100.00;101278.91;6183664;28;20038;-95
2023/06/23 13:37:57;;;;;;;11.45;8.18;;;;;;;22.23;100.00;101268.81;6189005;28;20213;-96
2023/06/23 13:41:03;;;;;;;10.85;7.93;;;;;;;22.39;100.00;101263.38;6204436;28;20034;-96
2023/06/23 13:44:06;;;;;;;9.45;7.90;;;;;;;22.58;100.00;101256.72;6201725;28;20042;-96
2023/06/23 13:47:14;;;;;;;10.43;8.02;;;;;;;22.85;100.00;101260.53;6200703;28;20038;-96
2023/06/23 13:50:18;;;;;;;12.98;8.32;;;;;;;23.03;100.00;101267.28;6208016;28;20057;-96
2023/06/23 13:53:29;;;;;;;;;;;;;;;23.09;100.00;101263.91;6197816;28;20077;-96
2023/06/23 13:56:31;;;;;;;10.77;8.35;;;;;;;23.11;100.00;101260.06;6195845;28;19926;-96
2023/06/23 13:59:34;;;;;;;9.52;8.27;;;;;;;23.36;100.00;101263.19;6186846;28;20051;-96
2023/06/23 14:02:37;;;;;;;12.80;8.77;;;;;;;23.61;100.00;101268.13;6186650;28;20046;-96
2023/06/23 14:05:40;;;;;;;11.25;9.02;;;;;;;23.78;100.00;101263.44;6186284;28;20038;-96
2023/06/23 14:08:56;;;;;;;12.70;9.32;;;;;;;23.69;100.00;101267.97;6180105;28;20133;-96